createdAt,value
2023-09-14T00:01:43.304Z,1.00
2023-09-14T00:04:13.084Z,1.00
2023-09-14T00:06:44.563Z,1.00
2023-09-14T00:09:14.230Z,1.00
2023-09-14T00:11:43.440Z,1.00
2023-09-14T00:14:12.812Z,1.00
2023-09-14T00:16:42.133Z,1.00
2023-09-14T00:19:11.870Z,1.00
2023-09-14T00:21:43.780Z,1.00
2023-09-14T00:24:12.854Z,1.00
2023-09-14T00:26:41.948Z,1.00
2023-09-14T00:29:11.077Z,1.00
2023-09-14T00:31:40.306Z,1.00
2023-09-14T00:34:09.606Z,1.00
2023-09-14T00:36:38.826Z,1.00
2023-09-14T00:39:11.364Z,1.00
2023-09-14T00:41:40.474Z,4.70
2023-09-14T00:44:09.600Z,1.00
2023-09-14T00:46:39.181Z,1.00
2023-09-14T00:49:08.511Z,1.00
2023-09-14T00:51:37.757Z,1.00
2023-09-14T00:54:08.675Z,1.20
2023-09-14T00:56:39.003Z,1.00
2023-09-14T00:59:08.824Z,1.00
2023-09-14T01:01:38.426Z,1.00
2023-09-14T01:04:08.419Z,1.00
2023-09-14T01:06:38.101Z,1.00
2023-09-14T01:09:09.365Z,1.00
2023-09-14T01:11:38.700Z,1.00
2023-09-14T01:14:15.475Z,1.00
2023-09-14T01:16:49.373Z,1.00
2023-09-14T01:19:40.003Z,1.00
2023-09-14T01:22:23.920Z,1.00
2023-09-14T01:25:00.861Z,1.00
2023-09-14T01:27:32.172Z,1.00
2023-09-14T01:30:04.331Z,1.00
2023-09-14T01:32:33.905Z,1.90
2023-09-14T01:35:03.055Z,1.00
2023-09-14T01:37:32.890Z,1.00
2023-09-14T01:40:02.255Z,1.00
2023-09-14T01:42:33.234Z,1.00
2023-09-14T01:45:02.523Z,1.00
2023-09-14T01:47:31.640Z,1.00
2023-09-14T01:50:00.731Z,1.00
2023-09-14T01:52:29.920Z,1.00
2023-09-14T01:54:59.044Z,1.00
2023-09-14T01:57:28.145Z,1.00
2023-09-14T01:59:58.716Z,1.00
2023-09-14T02:02:28.591Z,1.00
2023-09-14T02:04:57.808Z,1.00
2023-09-14T02:07:27.267Z,1.00
2023-09-14T02:09:56.383Z,1.00
2023-09-14T02:12:25.955Z,1.00
2023-09-14T02:14:55.786Z,1.00
2023-09-14T02:17:27.127Z,1.00
2023-09-14T02:19:56.525Z,1.00
2023-09-14T02:22:25.809Z,1.00
2023-09-14T02:24:55.050Z,1.00
2023-09-14T02:27:24.290Z,1.00
2023-09-14T02:29:55.577Z,1.00
2023-09-14T02:32:26.523Z,1.00
2023-09-14T02:34:55.698Z,1.00
2023-09-14T02:37:24.914Z,1.00
2023-09-14T02:39:54.071Z,1.00
2023-09-14T02:42:24.086Z,1.00
2023-09-14T02:44:53.209Z,1.00
2023-09-14T02:47:23.231Z,1.00
2023-09-14T02:49:53.764Z,1.00
2023-09-14T02:52:22.920Z,1.00
2023-09-14T02:54:52.027Z,1.00
2023-09-14T02:57:21.237Z,1.00
2023-09-14T02:59:50.530Z,1.00
2023-09-14T03:02:18.753Z,1.00
2023-09-14T03:04:47.835Z,1.00
2023-09-14T03:07:18.554Z,1.00
2023-09-14T03:09:47.827Z,1.00
2023-09-14T03:12:17.180Z,1.00
2023-09-14T03:14:46.362Z,1.00
2023-09-14T03:17:15.680Z,1.00
2023-09-14T03:19:45.599Z,1.00
2023-09-14T03:22:14.908Z,1.00
2023-09-14T03:24:46.186Z,1.00
2023-09-14T03:27:15.320Z,1.00
2023-09-14T03:29:44.656Z,1.00
2023-09-14T03:32:13.878Z,1.00
2023-09-14T03:34:42.958Z,1.00
2023-09-14T03:37:13.384Z,1.00
2023-09-14T03:39:46.842Z,1.00
2023-09-14T03:42:18.066Z,1.00
2023-09-14T03:44:47.154Z,1.00
2023-09-14T03:47:16.237Z,1.00
2023-09-14T03:49:45.336Z,1.00
2023-09-14T03:52:14.555Z,1.00
2023-09-14T03:54:43.632Z,1.00
2023-09-14T03:57:16.114Z,1.00
2023-09-14T03:59:48.113Z,1.00
2023-09-14T04:02:17.441Z,1.00
2023-09-14T04:04:47.316Z,1.00
2023-09-14T04:07:16.729Z,1.00
2023-09-14T04:09:45.934Z,1.00
2023-09-14T04:12:15.307Z,1.00
2023-09-14T04:14:44.788Z,1.00
2023-09-14T04:17:15.778Z,1.00
2023-09-14T04:19:45.391Z,1.00
2023-09-14T04:22:15.663Z,1.00
2023-09-14T04:24:45.484Z,1.00
2023-09-14T04:27:14.772Z,1.00
2023-09-14T04:29:44.194Z,1.00
2023-09-14T04:32:14.762Z,1.00
2023-09-14T04:34:44.553Z,1.00
2023-09-14T04:37:13.844Z,1.00
2023-09-14T04:39:43.796Z,1.00
2023-09-14T04:42:13.789Z,1.00
2023-09-14T04:44:43.086Z,1.00
2023-09-14T04:47:12.808Z,1.00
2023-09-14T04:49:43.530Z,1.00
2023-09-14T04:52:14.425Z,1.00
2023-09-14T04:54:43.702Z,1.00
2023-09-14T04:57:13.067Z,1.00
2023-09-14T04:59:42.154Z,1.00
2023-09-14T05:02:11.430Z,1.00
2023-09-14T05:04:42.642Z,1.00
2023-09-14T05:07:12.002Z,1.00
2023-09-14T05:09:41.349Z,1.00
2023-09-14T05:12:11.081Z,1.00
2023-09-14T05:14:40.420Z,1.00
2023-09-14T05:17:10.064Z,99.90
2023-09-14T05:19:44.851Z,99.90
2023-09-14T05:22:14.292Z,99.90
2023-09-14T05:24:44.275Z,99.90
2023-09-14T05:27:14.043Z,99.90
2023-09-14T05:29:44.993Z,99.90
2023-09-14T05:32:14.137Z,99.90
2023-09-14T05:34:44.970Z,99.90
2023-09-14T05:37:16.386Z,99.90
2023-09-14T05:39:46.242Z,99.90
2023-09-14T05:42:15.693Z,99.90
2023-09-14T05:44:45.719Z,99.90
2023-09-14T05:47:15.981Z,99.90
2023-09-14T05:49:47.815Z,99.90
2023-09-14T05:52:21.974Z,99.90
2023-09-14T05:54:52.490Z,99.90
2023-09-14T05:57:22.622Z,99.90
2023-09-14T05:59:51.981Z,99.90
2023-09-14T06:02:22.131Z,99.90
2023-09-14T06:04:53.301Z,99.90
2023-09-14T06:07:26.936Z,38.00
2023-09-14T06:09:56.250Z,1.00
2023-09-14T06:12:26.957Z,1.00
2023-09-14T06:14:57.074Z,99.90
2023-09-14T06:17:27.636Z,1.00
2023-09-14T06:19:58.776Z,1.00
2023-09-14T06:22:28.680Z,1.00
2023-09-14T06:24:58.945Z,1.00
2023-09-14T06:27:29.503Z,32.60
2023-09-14T06:30:00.056Z,52.20
2023-09-14T06:32:31.746Z,1.00
2023-09-14T06:35:03.217Z,99.90
2023-09-14T06:37:33.669Z,99.90
2023-09-14T06:40:05.009Z,1.00
2023-09-14T06:42:34.722Z,1.00
2023-09-14T06:45:04.562Z,99.90
2023-09-14T06:47:34.288Z,99.90
2023-09-14T06:50:06.791Z,1.00
2023-09-14T06:52:37.510Z,99.90
2023-09-14T06:55:08.735Z,1.00
2023-09-14T06:57:38.392Z,99.90
2023-09-14T07:00:16.549Z,1.00
2023-09-14T07:02:46.672Z,1.00
2023-09-14T07:05:19.182Z,99.90
2023-09-14T07:07:49.102Z,99.90
2023-09-14T07:10:18.930Z,99.90
2023-09-14T07:12:50.337Z,99.90
2023-09-14T07:15:19.998Z,99.90
2023-09-14T07:17:49.457Z,99.90
2023-09-14T07:20:20.642Z,99.90
2023-09-14T07:22:50.635Z,99.90
2023-09-14T07:25:20.420Z,99.90
2023-09-14T07:27:50.021Z,99.90
2023-09-14T07:30:19.511Z,99.90
2023-09-14T07:32:48.906Z,99.90
2023-09-14T07:35:19.903Z,99.90
2023-09-14T07:37:49.763Z,99.90
2023-09-14T07:40:19.210Z,99.90
2023-09-14T07:42:48.701Z,99.90
2023-09-14T07:45:18.075Z,99.90
2023-09-14T07:47:48.156Z,99.90
2023-09-14T07:50:18.239Z,99.90
2023-09-14T07:52:49.133Z,99.90
2023-09-14T07:55:18.733Z,99.90
2023-09-14T07:57:48.206Z,99.90
2023-09-14T08:00:18.473Z,96.30
2023-09-14T08:02:48.702Z,99.90
2023-09-14T08:05:18.342Z,99.90
2023-09-14T08:07:49.687Z,99.90
2023-09-14T08:10:21.165Z,99.90
2023-09-14T08:12:50.691Z,99.90
2023-09-14T08:15:20.272Z,99.90
2023-09-14T08:17:49.914Z,99.90
2023-09-14T08:20:19.518Z,99.90
2023-09-14T08:22:50.716Z,99.90
2023-09-14T08:25:21.174Z,37.60
2023-09-14T08:27:51.366Z,99.90
2023-09-14T08:30:20.880Z,99.90
2023-09-14T08:32:50.475Z,99.90
2023-09-14T08:35:23.999Z,99.90
2023-09-14T08:37:55.691Z,64.60
2023-09-14T08:40:26.562Z,29.40
2023-09-14T08:42:57.199Z,25.20
2023-09-14T08:45:28.048Z,79.90
2023-09-14T08:47:58.728Z,99.90
2023-09-14T08:50:30.056Z,58.40
2023-09-14T08:53:01.694Z,48.80
2023-09-14T08:55:34.323Z,97.70
2023-09-14T08:58:05.040Z,14.80
2023-09-14T09:00:36.780Z,1.00
2023-09-14T09:03:06.836Z,30.40
2023-09-14T09:05:37.098Z,38.60
2023-09-14T09:08:09.329Z,3.30
2023-09-14T09:10:42.377Z,1.00
2023-09-14T09:13:12.723Z,80.60
2023-09-14T09:15:42.566Z,50.00
2023-09-14T09:18:13.246Z,19.10
2023-09-14T09:20:47.395Z,1.00
2023-09-14T09:23:22.393Z,1.00
2023-09-14T09:25:55.329Z,1.00
2023-09-14T09:28:32.383Z,99.90
2023-09-14T09:31:02.865Z,99.90
2023-09-14T09:33:37.233Z,23.30
2023-09-14T09:36:17.918Z,28.30
2023-09-14T09:38:50.964Z,1.00
2023-09-14T09:41:20.680Z,1.00
2023-09-14T09:43:53.252Z,12.70
2023-09-14T09:46:22.836Z,1.00
2023-09-14T09:48:52.810Z,1.00
2023-09-14T09:51:26.059Z,1.00
2023-09-14T09:54:07.117Z,1.00
2023-09-14T09:56:37.894Z,38.30
2023-09-14T09:59:11.329Z,32.00
2023-09-14T10:01:41.691Z,1.00
2023-09-14T10:04:11.883Z,1.00
2023-09-14T10:06:42.396Z,1.00
2023-09-14T10:09:14.768Z,1.00
2023-09-14T10:11:47.734Z,74.80
2023-09-14T10:14:19.211Z,1.00
2023-09-14T10:16:50.939Z,1.00
2023-09-14T10:19:22.777Z,1.00
2023-09-14T10:21:55.445Z,1.00
2023-09-14T10:24:29.224Z,1.00
2023-09-14T10:27:00.593Z,1.00
2023-09-14T10:29:31.719Z,1.00
2023-09-14T10:32:02.196Z,1.00
2023-09-14T10:34:32.156Z,23.90
2023-09-14T10:37:02.698Z,27.40
2023-09-14T10:39:33.910Z,1.00
2023-09-14T10:42:04.177Z,1.00
2023-09-14T10:44:35.545Z,44.80
2023-09-14T10:47:07.365Z,1.00
2023-09-14T10:49:40.555Z,1.00
2023-09-14T10:52:11.199Z,1.00
2023-09-14T10:54:42.711Z,1.00
2023-09-14T10:57:24.098Z,1.00
2023-09-14T10:59:55.196Z,1.00
2023-09-14T11:05:43.669Z,1.00
2023-09-14T11:08:16.322Z,1.00
2023-09-14T11:11:17.229Z,1.00
2023-09-14T11:13:59.865Z,1.00
2023-09-14T11:16:45.012Z,1.00
2023-09-14T11:19:56.721Z,1.00
2023-09-14T11:22:29.556Z,1.00
2023-09-14T11:25:00.540Z,1.00
2023-09-14T11:27:37.410Z,1.00
2023-09-14T11:30:17.161Z,1.00
2023-09-14T11:32:49.174Z,1.00
2023-09-14T11:35:23.068Z,1.00
2023-09-14T11:37:55.643Z,1.00
2023-09-14T11:40:36.062Z,1.00
2023-09-14T11:43:43.508Z,1.00
2023-09-14T11:46:18.689Z,1.00
2023-09-14T11:51:28.742Z,1.00
2023-09-14T11:54:00.244Z,1.00
2023-09-14T11:56:30.069Z,1.00
2023-09-14T11:59:01.919Z,1.00
2023-09-14T12:01:32.809Z,1.00
2023-09-14T12:04:03.047Z,4.20
2023-09-14T12:06:34.185Z,1.00
2023-09-14T12:09:12.311Z,1.00
2023-09-14T12:11:51.261Z,1.00
2023-09-14T12:14:22.332Z,1.00
2023-09-14T12:16:51.768Z,99.90
2023-09-14T12:19:21.505Z,99.90
2023-09-14T12:21:51.169Z,1.00
2023-09-14T12:24:21.020Z,1.00
2023-09-14T12:26:50.432Z,1.00
2023-09-14T12:29:19.991Z,1.00
2023-09-14T12:31:51.432Z,1.00
2023-09-14T12:34:21.628Z,1.00
2023-09-14T12:36:52.131Z,99.90
2023-09-14T12:39:24.063Z,99.90
2023-09-14T12:41:55.270Z,99.90
2023-09-14T12:44:25.860Z,99.90
2023-09-14T12:46:57.577Z,99.90
2023-09-14T12:49:39.178Z,99.90
2023-09-14T12:52:09.531Z,99.90
2023-09-14T12:54:40.065Z,1.00
2023-09-14T12:57:14.237Z,99.90
2023-09-14T13:00:01.301Z,1.00
2023-09-14T13:02:35.363Z,99.90
2023-09-14T13:05:11.001Z,99.90
2023-09-14T13:07:47.482Z,99.90
2023-09-14T13:10:21.572Z,99.90
2023-09-14T13:12:54.397Z,99.90
2023-09-14T13:15:26.411Z,99.90
2023-09-14T13:17:58.678Z,99.90
2023-09-14T13:20:32.177Z,99.90
2023-09-14T13:23:03.887Z,99.90
2023-09-14T13:25:34.780Z,99.90
2023-09-14T13:28:04.566Z,99.90
2023-09-14T13:30:34.008Z,99.90
2023-09-14T13:33:04.132Z,99.90
2023-09-14T13:35:35.363Z,99.90
2023-09-14T13:38:04.864Z,99.90
2023-09-14T13:40:34.326Z,99.90
2023-09-14T13:43:05.443Z,99.90
2023-09-14T13:45:35.120Z,99.90
2023-09-14T13:48:05.035Z,99.90
2023-09-14T13:50:36.052Z,99.90
2023-09-14T13:53:06.851Z,99.90
2023-09-14T13:55:36.188Z,99.90
2023-09-14T13:58:05.821Z,99.90
2023-09-14T14:00:35.492Z,99.90
2023-09-14T14:03:12.887Z,99.90
2023-09-14T14:05:44.776Z,99.90
2023-09-14T14:08:14.982Z,99.90
2023-09-14T14:10:44.418Z,99.90
2023-09-14T14:13:13.835Z,99.90
2023-09-14T14:15:43.145Z,99.90
2023-09-14T14:18:13.025Z,99.90
2023-09-14T14:20:44.959Z,99.90
2023-09-14T14:23:14.495Z,99.90
2023-09-14T14:25:45.472Z,99.90
2023-09-14T14:28:14.820Z,99.90
2023-09-14T14:30:44.283Z,99.90
2023-09-14T14:33:14.885Z,99.90
2023-09-14T14:35:46.330Z,99.90
2023-09-14T14:38:15.842Z,99.90
2023-09-14T14:43:17.767Z,99.90
2023-09-14T14:45:47.170Z,99.90
2023-09-14T14:48:16.877Z,99.90
2023-09-14T14:50:48.180Z,99.90
2023-09-14T14:53:20.369Z,99.90
2023-09-14T14:55:50.206Z,99.90
2023-09-14T14:58:21.503Z,99.90
2023-09-14T15:00:52.082Z,99.90
2023-09-14T15:03:23.356Z,99.90
2023-09-14T15:05:55.688Z,99.90
2023-09-14T15:08:26.375Z,99.90
2023-09-14T15:10:57.542Z,99.90
2023-09-14T15:13:28.320Z,99.90
2023-09-14T15:15:58.421Z,99.90
2023-09-14T15:18:30.725Z,99.90
2023-09-14T15:21:02.333Z,99.90
2023-09-14T15:23:33.783Z,99.90
2023-09-14T15:26:06.047Z,99.90
2023-09-14T15:28:36.210Z,99.90
2023-09-14T15:31:14.900Z,99.90
2023-09-14T15:33:44.544Z,99.90
2023-09-14T15:36:17.333Z,99.90
2023-09-14T15:38:47.736Z,99.90
2023-09-14T15:41:19.188Z,99.90
2023-09-14T15:43:50.246Z,99.70
2023-09-14T15:46:21.026Z,94.50
2023-09-14T15:48:51.296Z,99.90
2023-09-14T15:51:25.228Z,99.90
2023-09-14T15:53:54.757Z,99.90
2023-09-14T15:56:25.875Z,66.30
2023-09-14T15:58:57.043Z,1.00
2023-09-14T16:01:27.403Z,1.00
2023-09-14T16:03:58.439Z,1.00
2023-09-14T16:06:30.272Z,1.00
2023-09-14T16:09:02.544Z,1.00
2023-09-14T16:11:33.083Z,16.90
2023-09-14T16:14:04.109Z,6.80
2023-09-14T16:16:34.458Z,1.00
2023-09-14T16:19:05.209Z,1.00
2023-09-14T16:21:37.268Z,38.40
2023-09-14T16:24:08.069Z,1.00
2023-09-14T16:26:38.076Z,92.60
2023-09-14T16:29:08.029Z,56.10
2023-09-14T16:31:37.743Z,34.80
2023-09-14T16:34:09.472Z,42.60
2023-09-14T16:36:44.424Z,34.10
2023-09-14T16:39:16.146Z,28.20
2023-09-14T16:41:46.409Z,49.80
2023-09-14T16:44:17.621Z,50.70
2023-09-14T16:46:48.326Z,82.90
2023-09-14T16:49:25.654Z,99.90
2023-09-14T16:51:59.447Z,90.30
2023-09-14T16:54:31.682Z,92.10
2023-09-14T16:57:05.213Z,99.90
2023-09-14T16:59:38.220Z,99.90
2023-09-14T17:02:12.646Z,99.90
2023-09-14T17:04:47.341Z,99.90
2023-09-14T17:07:20.011Z,99.90
2023-09-14T17:09:50.996Z,99.90
2023-09-14T17:12:22.374Z,99.90
2023-09-14T17:14:52.624Z,99.90
2023-09-14T17:17:23.655Z,99.90
2023-09-14T17:19:55.024Z,99.90
2023-09-14T17:22:28.550Z,99.90
2023-09-14T17:25:01.516Z,99.90
2023-09-14T17:27:33.309Z,99.90
2023-09-14T17:30:07.144Z,1.00
2023-09-14T17:32:37.447Z,99.90
2023-09-14T17:35:10.971Z,1.00
2023-09-14T17:37:46.212Z,99.90
2023-09-14T17:40:18.598Z,99.90
2023-09-14T17:42:49.515Z,99.90
2023-09-14T17:45:20.896Z,99.90
2023-09-14T17:47:51.124Z,99.90
2023-09-14T17:50:22.518Z,99.90
2023-09-14T17:52:55.348Z,99.90
2023-09-14T17:55:26.868Z,99.90
2023-09-14T17:57:59.607Z,99.90
2023-09-14T18:00:31.458Z,99.90
2023-09-14T18:03:03.532Z,99.90
2023-09-14T18:05:33.949Z,99.90
2023-09-14T18:08:05.984Z,99.90
2023-09-14T18:10:35.927Z,99.90
2023-09-14T18:13:06.464Z,99.90
2023-09-14T18:15:40.491Z,99.90
2023-09-14T18:18:12.598Z,1.00
2023-09-14T18:20:44.038Z,99.90
2023-09-14T18:23:19.017Z,1.00
2023-09-14T18:25:55.897Z,1.00
2023-09-14T18:28:28.915Z,99.90
2023-09-14T18:30:59.938Z,99.90
2023-09-14T18:33:34.465Z,99.90
2023-09-14T18:36:17.883Z,99.90
2023-09-14T18:38:49.522Z,99.90
2023-09-14T18:41:25.117Z,99.90
2023-09-14T18:43:56.023Z,99.90
2023-09-14T18:46:28.736Z,1.00
2023-09-14T18:49:01.912Z,99.90
2023-09-14T18:51:33.844Z,99.90
2023-09-14T18:54:08.945Z,99.90
2023-09-14T18:56:42.942Z,99.90
2023-09-14T18:59:32.686Z,99.90
2023-09-14T19:02:09.554Z,99.90
2023-09-14T19:04:40.422Z,1.00
2023-09-14T19:07:10.597Z,1.00
2023-09-14T19:09:57.275Z,1.00
2023-09-14T19:12:31.777Z,1.00
2023-09-14T19:15:07.572Z,1.00
2023-09-14T19:17:44.522Z,1.00
2023-09-14T19:20:15.997Z,1.00
2023-09-14T19:22:46.714Z,1.00
2023-09-14T19:25:19.802Z,1.00
2023-09-14T19:27:51.515Z,1.00
2023-09-14T19:30:24.132Z,1.00
2023-09-14T19:32:58.142Z,1.00
2023-09-14T19:35:30.469Z,1.00
2023-09-14T19:38:00.615Z,1.00
2023-09-14T19:40:33.133Z,1.00
2023-09-14T19:43:04.480Z,1.00
2023-09-14T19:45:42.193Z,1.00
2023-09-14T19:48:17.350Z,1.00
2023-09-14T19:50:53.875Z,1.00
2023-09-14T19:53:39.737Z,26.00
2023-09-14T19:56:17.668Z,65.80
2023-09-14T19:58:47.843Z,27.20
2023-09-14T20:01:20.010Z,99.90
2023-09-14T20:03:51.694Z,99.90
2023-09-14T20:06:23.460Z,99.90
2023-09-14T20:08:57.502Z,99.90
2023-09-14T20:11:29.362Z,99.90
2023-09-14T20:14:04.370Z,99.90
2023-09-14T20:16:34.576Z,99.90
2023-09-14T20:19:07.493Z,99.90
2023-09-14T20:21:38.791Z,99.90
2023-09-14T20:24:09.603Z,99.90
2023-09-14T20:26:43.120Z,99.90
2023-09-14T20:29:13.988Z,1.00
2023-09-14T20:31:44.784Z,99.90
2023-09-14T20:34:14.934Z,99.90
2023-09-14T20:36:45.639Z,99.90
2023-09-14T20:39:16.691Z,1.00
2023-09-14T20:41:48.754Z,1.00
2023-09-14T20:44:19.801Z,1.00
2023-09-14T20:46:50.621Z,1.00
2023-09-14T20:49:22.735Z,1.00
2023-09-14T20:51:53.284Z,1.00
2023-09-14T20:54:23.032Z,1.00
2023-09-14T20:56:55.173Z,1.00
2023-09-14T20:59:26.424Z,1.00
2023-09-14T21:01:55.871Z,1.00
2023-09-14T21:04:25.336Z,1.00
2023-09-14T21:06:54.559Z,53.90
2023-09-14T21:09:24.675Z,99.90
2023-09-14T21:11:55.390Z,99.90
2023-09-14T21:14:28.292Z,99.90
2023-09-14T21:16:57.901Z,1.00
2023-09-14T21:19:27.226Z,1.00
2023-09-14T21:22:03.351Z,43.50
2023-09-14T21:24:32.629Z,1.00
2023-09-14T21:27:03.651Z,1.00
2023-09-14T21:29:33.062Z,99.90
2023-09-14T21:32:02.396Z,1.00
2023-09-14T21:34:31.645Z,99.90
2023-09-14T21:37:01.015Z,99.90
2023-09-14T21:39:30.294Z,99.90
2023-09-14T21:41:59.526Z,99.90
2023-09-14T21:44:30.382Z,99.90
2023-09-14T21:47:03.554Z,99.90
2023-09-14T21:49:37.180Z,99.90
2023-09-14T21:52:08.707Z,10.60
2023-09-14T21:54:39.354Z,99.90
2023-09-14T21:57:09.238Z,77.00
2023-09-14T21:59:43.055Z,1.00
2023-09-14T22:02:12.528Z,1.00
2023-09-14T22:04:41.850Z,17.20
2023-09-14T22:07:11.918Z,16.20
2023-09-14T22:09:41.185Z,1.00
2023-09-14T22:12:10.533Z,1.00
2023-09-14T22:14:41.340Z,1.00
2023-09-14T22:17:11.607Z,1.00
2023-09-14T22:19:41.941Z,1.00
2023-09-14T22:22:12.379Z,1.00
2023-09-14T22:24:41.732Z,90.50
2023-09-14T22:27:11.160Z,99.90
2023-09-14T22:29:42.256Z,99.90
2023-09-14T22:32:11.561Z,1.00
2023-09-14T22:34:41.183Z,99.90
2023-09-14T22:37:10.423Z,99.90
2023-09-14T22:39:39.615Z,1.00
2023-09-14T22:42:09.219Z,1.00
2023-09-14T22:44:38.927Z,1.00
2023-09-14T22:47:09.676Z,1.00
2023-09-14T22:49:39.192Z,1.00
2023-09-14T22:52:08.678Z,1.00
2023-09-14T22:54:38.583Z,1.00
2023-09-14T22:57:08.269Z,1.00
2023-09-14T22:59:37.572Z,1.00
2023-09-14T23:02:06.988Z,99.90
2023-09-14T23:04:37.649Z,99.90
2023-09-14T23:07:07.168Z,99.90
2023-09-14T23:09:36.221Z,99.90
2023-09-14T23:12:06.040Z,1.00
2023-09-14T23:14:35.242Z,1.00
2023-09-14T23:17:04.949Z,1.00
2023-09-14T23:19:34.278Z,1.00
2023-09-14T23:22:05.164Z,99.90
2023-09-14T23:24:35.803Z,1.00
2023-09-14T23:27:05.371Z,1.00
2023-09-14T23:29:34.986Z,1.00
2023-09-14T23:32:05.662Z,1.00
2023-09-14T23:34:35.413Z,1.00
2023-09-14T23:37:08.118Z,99.90
2023-09-14T23:39:37.351Z,99.90
2023-09-14T23:42:09.396Z,99.90
2023-09-14T23:44:39.218Z,99.90
2023-09-14T23:47:12.920Z,99.90
2023-09-14T23:49:42.716Z,1.00
2023-09-14T23:52:13.408Z,99.90
2023-09-14T23:54:42.620Z,99.90
2023-09-14T23:57:11.866Z,99.90
2023-09-14T23:59:41.654Z,99.90
